createdAt,value
2018-09-10T00:00:23.191Z,10.83
2018-09-10T00:01:24.086Z,10.76
2018-09-10T00:02:23.143Z,10.76
2018-09-10T00:03:23.125Z,10.78
2018-09-10T00:04:23.104Z,10.80
2018-09-10T00:05:23.089Z,10.81
2018-09-10T00:06:23.070Z,10.76
2018-09-10T00:07:23.051Z,10.83
2018-09-10T00:08:23.031Z,10.83
2018-09-10T00:09:23.023Z,10.88
2018-09-10T00:10:22.998Z,10.91
2018-09-10T00:11:22.986Z,10.89
2018-09-10T00:12:22.953Z,11.13
2018-09-10T00:13:22.956Z,11.16
2018-09-10T00:14:22.937Z,11.24
2018-09-10T00:15:22.899Z,11.24
2018-09-10T00:16:22.918Z,11.32
2018-09-10T00:17:23.468Z,11.38
2018-09-10T00:18:22.841Z,11.35
2018-09-10T00:19:22.821Z,11.38
2018-09-10T00:20:22.894Z,11.49
2018-09-10T00:21:22.778Z,11.53
2018-09-10T00:22:22.762Z,11.52
2018-09-10T00:23:22.753Z,11.47
2018-09-10T00:24:22.727Z,11.52
2018-09-10T00:25:22.706Z,11.50
2018-09-10T00:26:22.683Z,11.35
2018-09-10T00:27:22.944Z,11.27
2018-09-10T00:28:22.643Z,11.35
2018-09-10T00:29:22.627Z,11.27
2018-09-10T00:30:22.613Z,11.27
2018-09-10T00:31:22.599Z,11.38
2018-09-10T00:32:22.577Z,11.31
2018-09-10T00:33:22.561Z,11.36
2018-09-10T00:34:22.529Z,11.29
2018-09-10T00:35:22.708Z,11.35
2018-09-10T00:36:22.490Z,11.36
2018-09-10T00:37:22.477Z,11.47
2018-09-10T00:38:22.458Z,11.59
2018-09-10T00:39:22.438Z,11.56
2018-09-10T00:40:22.414Z,11.59
2018-09-10T00:41:22.397Z,11.61
2018-09-10T00:42:22.392Z,11.50
2018-09-10T00:43:22.357Z,11.38
2018-09-10T00:44:22.347Z,11.35
2018-09-10T00:45:22.315Z,11.29
2018-09-10T00:46:22.308Z,11.19
2018-09-10T00:47:22.500Z,11.13
2018-09-10T00:48:22.269Z,11.13
2018-09-10T00:49:22.245Z,11.13
2018-09-10T00:50:22.231Z,11.01
2018-09-10T00:51:22.204Z,10.94
2018-09-10T00:52:22.188Z,10.88
2018-09-10T00:53:22.169Z,10.76
2018-09-10T00:54:22.147Z,10.78
2018-09-10T00:55:22.261Z,10.74
2018-09-10T00:56:22.105Z,10.65
2018-09-10T00:57:22.292Z,10.60
2018-09-10T00:58:22.076Z,10.58
2018-09-10T00:59:22.052Z,10.60
2018-09-10T01:00:22.038Z,10.63
2018-09-10T01:01:22.007Z,10.58
2018-09-10T01:02:21.997Z,10.53
2018-09-10T01:03:21.972Z,10.52
2018-09-10T01:04:21.955Z,10.47
2018-09-10T01:05:21.942Z,10.43
2018-09-10T01:06:21.913Z,10.42
2018-09-10T01:07:21.895Z,10.33
2018-09-10T01:08:21.888Z,10.34
2018-09-10T01:09:21.859Z,10.36
2018-09-10T01:10:21.841Z,10.32
2018-09-10T01:11:21.818Z,10.33
2018-09-10T01:12:21.797Z,10.32
2018-09-10T01:13:21.784Z,10.39
2018-09-10T01:14:21.759Z,10.39
2018-09-10T01:15:21.743Z,10.39
2018-09-10T01:16:21.723Z,10.39
2018-09-10T01:17:22.484Z,10.36
2018-09-10T01:18:21.689Z,10.44
2018-09-10T01:19:21.670Z,10.39
2018-09-10T01:20:21.650Z,10.40
2018-09-10T01:21:21.628Z,10.36
2018-09-10T01:22:21.603Z,10.40
2018-09-10T01:23:21.601Z,10.37
2018-09-10T01:24:21.565Z,10.26
2018-09-10T01:25:21.546Z,10.24
2018-09-10T01:26:21.530Z,10.34
2018-09-10T01:27:21.511Z,10.39
2018-09-10T01:28:21.489Z,10.33
2018-09-10T01:29:21.469Z,10.21
2018-09-10T01:30:21.450Z,10.22
2018-09-10T01:31:21.431Z,10.24
2018-09-10T01:32:21.415Z,10.30
2018-09-10T01:33:21.398Z,10.25
2018-09-10T01:34:21.372Z,10.22
2018-09-10T01:35:21.366Z,10.30
2018-09-10T01:36:21.328Z,10.37
2018-09-10T01:37:21.312Z,10.40
2018-09-10T01:38:21.292Z,10.47
2018-09-10T01:39:21.273Z,10.53
2018-09-10T01:40:21.254Z,10.59
2018-09-10T01:41:21.235Z,10.63
2018-09-10T01:42:21.215Z,10.71
2018-09-10T01:43:21.202Z,10.73
2018-09-10T01:44:21.188Z,10.70
2018-09-10T01:45:21.154Z,10.70
2018-09-10T01:46:21.142Z,10.63
2018-09-10T01:47:21.122Z,10.56
2018-09-10T01:48:21.100Z,10.55
2018-09-10T01:49:21.077Z,10.58
2018-09-10T01:50:21.058Z,10.46
2018-09-10T01:51:21.039Z,10.47
2018-09-10T01:52:21.027Z,10.37
2018-09-10T01:53:21.007Z,10.34
2018-09-10T01:54:20.982Z,10.21
2018-09-10T01:55:20.966Z,10.24
2018-09-10T01:56:20.940Z,10.21
2018-09-10T01:57:20.926Z,10.17
2018-09-10T01:58:20.901Z,10.24
2018-09-10T01:59:20.879Z,10.30
2018-09-10T02:00:20.859Z,10.39
2018-09-10T02:01:20.847Z,10.39
2018-09-10T02:02:20.821Z,10.52
2018-09-10T02:03:20.808Z,10.47
2018-09-10T02:04:20.788Z,10.46
2018-09-10T02:05:20.763Z,10.55
2018-09-10T02:06:20.743Z,10.43
2018-09-10T02:07:20.728Z,10.53
2018-09-10T02:08:20.709Z,10.47
2018-09-10T02:09:20.693Z,10.52
2018-09-10T02:10:20.667Z,10.51
2018-09-10T02:11:20.645Z,10.62
2018-09-10T02:12:20.626Z,10.71
2018-09-10T02:13:20.657Z,10.66
2018-09-10T02:14:20.586Z,10.65
2018-09-10T02:15:20.563Z,10.71
2018-09-10T02:16:20.545Z,10.62
2018-09-10T02:17:20.525Z,10.56
2018-09-10T02:18:20.512Z,10.58
2018-09-10T02:19:20.487Z,10.56
2018-09-10T02:20:20.504Z,10.56
2018-09-10T02:21:20.448Z,10.58
2018-09-10T02:22:20.438Z,10.51
2018-09-10T02:23:20.411Z,10.58
2018-09-10T02:24:20.388Z,10.59
2018-09-10T02:25:20.369Z,10.73
2018-09-10T02:26:20.357Z,10.83
2018-09-10T02:27:20.338Z,10.88
2018-09-10T02:28:20.312Z,10.98
2018-09-10T02:29:20.362Z,10.98
2018-09-10T02:30:20.271Z,11.03
2018-09-10T02:31:20.254Z,11.06
2018-09-10T02:32:20.236Z,11.06
2018-09-10T02:33:20.210Z,10.95
2018-09-10T02:34:20.197Z,11.03
2018-09-10T02:35:20.172Z,11.01
2018-09-10T02:36:20.152Z,10.95
2018-09-10T02:37:20.133Z,10.84
2018-09-10T02:38:20.140Z,10.94
2018-09-10T02:39:20.091Z,10.96
2018-09-10T02:40:20.077Z,11.07
2018-09-10T02:41:20.066Z,11.01
2018-09-10T02:42:20.040Z,11.13
2018-09-10T02:43:20.015Z,11.14
2018-09-10T02:44:20.000Z,11.07
2018-09-10T02:45:19.980Z,11.01
2018-09-10T02:46:19.954Z,11.01
2018-09-10T02:47:19.935Z,10.91
2018-09-10T02:48:19.916Z,10.83
2018-09-10T02:49:19.903Z,10.81
2018-09-10T02:50:19.890Z,10.77
2018-09-10T02:51:19.867Z,10.73
2018-09-10T02:52:19.839Z,10.66
2018-09-10T02:53:19.825Z,10.70
2018-09-10T02:54:19.805Z,10.63
2018-09-10T02:55:19.830Z,10.66
2018-09-10T02:56:19.763Z,10.63
2018-09-10T02:57:19.738Z,10.58
2018-09-10T02:58:19.719Z,10.56
2018-09-10T02:59:19.705Z,10.60
2018-09-10T03:00:19.687Z,10.55
2018-09-10T03:01:19.659Z,10.40
2018-09-10T03:02:19.645Z,10.44
2018-09-10T03:03:19.623Z,10.32
2018-09-10T03:04:19.608Z,10.26
2018-09-10T03:05:20.510Z,10.14
2018-09-10T03:06:19.560Z,10.07
2018-09-10T03:07:19.540Z,9.99
2018-09-10T03:08:19.527Z,10.00
2018-09-10T03:09:19.504Z,9.93
2018-09-10T03:10:19.483Z,9.85
2018-09-10T03:11:19.464Z,9.78
2018-09-10T03:12:19.450Z,9.78
2018-09-10T03:13:19.419Z,9.71
2018-09-10T03:14:19.404Z,9.79
2018-09-10T03:15:19.386Z,9.78
2018-09-10T03:16:19.364Z,9.88
2018-09-10T03:17:19.350Z,9.89
2018-09-10T03:18:19.325Z,9.83
2018-09-10T03:19:19.306Z,9.78
2018-09-10T03:20:19.284Z,9.76
2018-09-10T03:21:19.277Z,9.82
2018-09-10T03:22:19.252Z,9.79
2018-09-10T03:23:19.229Z,9.61
2018-09-10T03:24:20.009Z,9.63
2018-09-10T03:25:19.182Z,9.63
2018-09-10T03:26:19.163Z,9.64
2018-09-10T03:27:19.143Z,9.60
2018-09-10T03:28:19.121Z,9.56
2018-09-10T03:29:19.111Z,9.53
2018-09-10T03:30:19.083Z,9.48
2018-09-10T03:31:19.074Z,9.45
2018-09-10T03:32:19.045Z,9.49
2018-09-10T03:33:19.515Z,9.45
2018-09-10T03:34:19.008Z,9.34
2018-09-10T03:35:18.980Z,9.32
2018-09-10T03:36:18.970Z,9.32
2018-09-10T03:37:18.941Z,9.38
2018-09-10T03:38:18.941Z,9.39
2018-09-10T03:39:18.903Z,9.34
2018-09-10T03:40:18.899Z,9.30
2018-09-10T03:41:18.865Z,9.35
2018-09-10T03:42:18.842Z,9.34
2018-09-10T03:43:18.826Z,9.38
2018-09-10T03:44:18.799Z,9.30
2018-09-10T03:45:18.787Z,9.30
2018-09-10T03:46:18.762Z,9.31
2018-09-10T03:47:18.820Z,9.21
2018-09-10T03:48:18.723Z,9.23
2018-09-10T03:49:18.704Z,9.24
2018-09-10T03:50:18.678Z,9.16
2018-09-10T03:51:18.659Z,9.13
2018-09-10T03:52:18.646Z,9.18
2018-09-10T03:53:18.631Z,9.20
2018-09-10T03:54:18.598Z,9.24
2018-09-10T03:55:18.616Z,9.23
2018-09-10T03:56:18.569Z,9.28
2018-09-10T03:57:18.537Z,9.34
2018-09-10T03:58:18.518Z,9.35
2018-09-10T03:59:18.502Z,9.40
2018-09-10T04:00:18.479Z,9.40
2018-09-10T04:01:18.463Z,9.38
2018-09-10T04:02:18.434Z,9.27
2018-09-10T04:03:18.415Z,9.25
2018-09-10T04:04:18.399Z,9.21
2018-09-10T04:05:18.374Z,9.23
2018-09-10T04:06:18.354Z,9.20
2018-09-10T04:07:18.335Z,9.21
2018-09-10T04:08:18.313Z,9.20
2018-09-10T04:09:18.303Z,9.16
2018-09-10T04:10:18.277Z,9.20
2018-09-10T04:11:18.252Z,9.12
2018-09-10T04:12:18.242Z,9.24
2018-09-10T04:13:18.212Z,9.16
2018-09-10T04:14:18.212Z,9.24
2018-09-10T04:15:18.177Z,9.38
2018-09-10T04:16:18.161Z,9.40
2018-09-10T04:17:18.216Z,9.49
2018-09-10T04:18:18.122Z,9.53
2018-09-10T04:19:18.088Z,9.56
2018-09-10T04:20:18.068Z,9.49
2018-09-10T04:21:18.052Z,9.42
2018-09-10T04:22:18.030Z,9.40
2018-09-10T04:23:18.023Z,9.35
2018-09-10T04:24:17.991Z,9.35
2018-09-10T04:25:17.969Z,9.43
2018-09-10T04:26:17.944Z,9.48
2018-09-10T04:27:17.933Z,9.45
2018-09-10T04:28:17.908Z,9.46
2018-09-10T04:29:17.888Z,9.56
2018-09-10T04:30:17.867Z,9.58
2018-09-10T04:31:17.851Z,9.50
2018-09-10T04:32:17.822Z,9.57
2018-09-10T04:33:17.815Z,9.46
2018-09-10T04:34:17.794Z,9.48
2018-09-10T04:35:18.529Z,9.42
2018-09-10T04:36:17.748Z,9.45
2018-09-10T04:37:17.724Z,9.50
2018-09-10T04:38:17.702Z,9.45
2018-09-10T04:39:17.682Z,9.43
2018-09-10T04:40:17.666Z,9.48
2018-09-10T04:41:17.647Z,9.45
2018-09-10T04:42:17.693Z,9.49
2018-09-10T04:43:17.609Z,9.60
2018-09-10T04:44:17.590Z,9.64
2018-09-10T04:45:17.654Z,9.76
2018-09-10T04:46:17.561Z,9.61
2018-09-10T04:47:17.519Z,9.67
2018-09-10T04:48:17.500Z,9.53
2018-09-10T04:49:17.478Z,9.56
2018-09-10T04:50:17.459Z,9.60
2018-09-10T04:51:17.439Z,9.61
2018-09-10T04:52:17.420Z,9.58
2018-09-10T04:53:17.396Z,9.52
2018-09-10T04:54:17.387Z,9.60
2018-09-10T04:55:17.365Z,9.50
2018-09-10T04:56:17.335Z,9.42
2018-09-10T04:57:17.332Z,9.50
2018-09-10T04:58:17.373Z,9.42
2018-09-10T04:59:17.284Z,9.45
2018-09-10T05:00:17.255Z,9.56
2018-09-10T05:01:17.242Z,9.58
2018-09-10T05:02:17.211Z,9.68
2018-09-10T05:03:17.192Z,9.73
2018-09-10T05:04:17.184Z,9.73
2018-09-10T05:05:17.154Z,9.76
2018-09-10T05:06:17.131Z,9.78
2018-09-10T05:07:17.115Z,9.70
2018-09-10T05:08:17.102Z,9.58
2018-09-10T05:09:17.070Z,9.61
2018-09-10T05:10:17.051Z,9.61
2018-09-10T05:11:17.039Z,9.57
2018-09-10T05:12:17.014Z,9.57
2018-09-10T05:13:16.996Z,9.66
2018-09-10T05:14:16.973Z,9.76
2018-09-10T05:15:16.964Z,9.75
2018-09-10T05:16:16.937Z,9.81
2018-09-10T05:17:17.535Z,9.71
2018-09-10T05:18:16.887Z,9.68
2018-09-10T05:19:16.870Z,9.75
2018-09-10T05:20:16.867Z,9.85
2018-09-10T05:21:16.832Z,9.91
2018-09-10T05:22:16.814Z,10.00
2018-09-10T05:23:16.802Z,10.10
2018-09-10T05:24:16.767Z,10.07
2018-09-10T05:25:16.755Z,10.04
2018-09-10T05:26:16.725Z,10.14
2018-09-10T05:27:16.728Z,10.14
2018-09-10T05:28:16.706Z,10.14
2018-09-10T05:29:16.672Z,10.06
2018-09-10T05:30:16.651Z,10.21
2018-09-10T05:31:16.638Z,10.12
2018-09-10T05:32:16.606Z,10.14
2018-09-10T05:33:16.594Z,10.25
2018-09-10T05:34:16.577Z,10.19
2018-09-10T05:35:16.545Z,10.25
2018-09-10T05:36:16.526Z,10.25
2018-09-10T05:37:16.519Z,10.33
2018-09-10T05:38:16.494Z,10.32
2018-09-10T05:39:16.468Z,10.42
2018-09-10T05:40:16.449Z,10.53
2018-09-10T05:41:16.433Z,10.55
2018-09-10T05:42:16.414Z,10.46
2018-09-10T05:43:16.391Z,10.71
2018-09-10T05:44:16.368Z,10.77
2018-09-10T05:45:16.358Z,10.83
2018-09-10T05:46:16.346Z,10.92
2018-09-10T05:47:16.308Z,11.06
2018-09-10T05:48:16.295Z,11.06
2018-09-10T05:49:16.272Z,11.07
2018-09-10T05:50:16.257Z,11.14
2018-09-10T05:51:16.239Z,11.16
2018-09-10T05:52:16.212Z,11.25
2018-09-10T05:53:16.214Z,11.28
2018-09-10T05:54:16.179Z,11.32
2018-09-10T05:55:16.161Z,11.43
2018-09-10T05:56:16.141Z,11.49
2018-09-10T05:57:16.119Z,11.52
2018-09-10T05:58:16.097Z,11.77
2018-09-10T05:59:16.075Z,11.80
2018-09-10T06:00:16.068Z,11.83
2018-09-10T06:01:16.039Z,11.86
2018-09-10T06:02:16.020Z,11.85
2018-09-10T06:03:16.000Z,11.90
2018-09-10T06:04:15.984Z,11.93
2018-09-10T06:05:15.968Z,11.93
2018-09-10T06:06:15.949Z,12.05
2018-09-10T06:07:15.930Z,12.02
2018-09-10T06:08:15.904Z,12.04
2018-09-10T06:09:15.901Z,12.08
2018-09-10T06:10:15.866Z,12.13
2018-09-10T06:11:15.853Z,12.16
2018-09-10T06:12:15.827Z,12.21
2018-09-10T06:13:15.810Z,12.19
2018-09-10T06:14:15.791Z,12.29
2018-09-10T06:15:15.773Z,12.30
2018-09-10T06:16:15.792Z,12.42
2018-09-10T06:17:15.736Z,12.56
2018-09-10T06:18:15.717Z,12.87
2018-09-10T06:19:15.704Z,12.96
2018-09-10T06:20:15.682Z,13.37
2018-09-10T06:21:15.675Z,13.56
2018-09-10T06:22:15.650Z,13.89
2018-09-10T06:23:15.624Z,13.96
2018-09-10T06:24:15.609Z,14.10
2018-09-10T06:25:15.590Z,14.27
2018-09-10T06:26:15.570Z,14.29
2018-09-10T06:27:15.561Z,14.32
2018-09-10T06:28:15.536Z,14.31
2018-09-10T06:29:15.526Z,14.38
2018-09-10T06:30:15.552Z,14.38
2018-09-10T06:31:15.493Z,14.34
2018-09-10T06:32:15.471Z,14.42
2018-09-10T06:33:15.449Z,14.42
2018-09-10T06:34:15.485Z,14.57
2018-09-10T06:35:15.414Z,14.67
2018-09-10T06:36:15.408Z,14.81
2018-09-10T06:37:15.460Z,14.74
2018-09-10T06:38:15.369Z,14.88
2018-09-10T06:39:15.344Z,14.78
2018-09-10T06:40:15.328Z,14.74
2018-09-10T06:41:15.312Z,14.57
2018-09-10T06:42:15.292Z,14.54
2018-09-10T06:43:15.277Z,14.53
2018-09-10T06:44:15.257Z,14.43
2018-09-10T06:45:15.238Z,14.52
2018-09-10T06:46:15.235Z,14.53
2018-09-10T06:47:15.213Z,14.54
2018-09-10T06:48:15.197Z,14.60
2018-09-10T06:49:15.178Z,14.57
2018-09-10T06:50:15.159Z,14.52
2018-09-10T06:51:15.145Z,14.39
2018-09-10T06:52:15.127Z,14.44
2018-09-10T06:53:15.107Z,14.47
2018-09-10T06:54:15.091Z,14.61
2018-09-10T06:55:15.082Z,14.65
2018-09-10T06:56:15.059Z,14.75
2018-09-10T06:57:15.059Z,14.81
2018-09-10T06:58:15.031Z,14.88
2018-09-10T06:59:15.010Z,15.06
2018-09-10T07:00:15.103Z,15.17
2018-09-10T07:01:14.984Z,15.26
2018-09-10T07:02:14.957Z,15.42
2018-09-10T07:03:14.942Z,15.56
2018-09-10T07:04:14.933Z,15.72
2018-09-10T07:05:14.914Z,15.81
2018-09-10T07:06:14.896Z,15.81
2018-09-10T07:07:14.878Z,15.88
2018-09-10T07:08:14.862Z,16.03
2018-09-10T07:09:14.852Z,16.07
2018-09-10T07:10:14.837Z,16.15
2018-09-10T07:11:14.822Z,16.27
2018-09-10T07:12:14.806Z,16.20
2018-09-10T07:13:14.863Z,16.45
2018-09-10T07:14:14.767Z,16.45
2018-09-10T07:15:14.755Z,16.67
2018-09-10T07:16:14.757Z,16.77
2018-09-10T07:17:14.729Z,16.86
2018-09-10T07:18:14.709Z,16.88
2018-09-10T07:19:14.697Z,17.00
2018-09-10T07:20:14.675Z,17.18
2018-09-10T07:21:14.665Z,17.50
2018-09-10T07:22:14.652Z,17.63
2018-09-10T07:23:14.640Z,17.71
2018-09-10T07:24:14.639Z,17.85
2018-09-10T07:25:14.613Z,17.87
2018-09-10T07:26:14.604Z,18.00
2018-09-10T07:27:14.583Z,18.27
2018-09-10T07:28:14.561Z,18.39
2018-09-10T07:29:14.548Z,18.47
2018-09-10T07:30:14.533Z,18.57
2018-09-10T07:31:14.519Z,18.74
2018-09-10T07:32:14.533Z,19.10
2018-09-10T07:33:14.497Z,19.15
2018-09-10T07:34:14.484Z,19.13
2018-09-10T07:35:14.465Z,19.28
2018-09-10T07:36:14.456Z,19.55
2018-09-10T07:37:14.437Z,19.75
2018-09-10T07:38:14.435Z,19.86
2018-09-10T07:39:14.417Z,20.03
2018-09-10T07:40:14.402Z,20.27
2018-09-10T07:41:14.386Z,20.54
2018-09-10T07:42:14.370Z,20.95
2018-09-10T07:43:14.367Z,21.23
2018-09-10T07:44:14.415Z,21.46
2018-09-10T07:45:14.336Z,21.67
2018-09-10T07:46:15.140Z,21.69
2018-09-10T07:47:14.313Z,21.69
2018-09-10T07:48:14.300Z,21.92
2018-09-10T07:49:14.287Z,22.02
2018-09-10T07:50:14.276Z,22.12
2018-09-10T07:51:14.268Z,22.50
2018-09-10T07:52:14.252Z,23.05
2018-09-10T07:53:14.243Z,23.64
2018-09-10T07:54:14.230Z,24.08
2018-09-10T07:55:14.227Z,24.39
2018-09-10T07:56:14.207Z,24.61
2018-09-10T07:57:14.197Z,24.85
2018-09-10T07:58:14.203Z,24.85
2018-09-10T07:59:14.178Z,24.57
2018-09-10T08:00:14.165Z,24.59
2018-09-10T08:01:14.162Z,24.68
2018-09-10T08:02:14.146Z,24.76
2018-09-10T08:03:14.150Z,24.82
2018-09-10T08:04:14.134Z,24.80
2018-09-10T08:05:14.124Z,24.80
2018-09-10T08:06:14.114Z,25.19
2018-09-10T08:07:14.101Z,25.38
2018-09-10T08:08:14.105Z,25.57
2018-09-10T08:09:14.123Z,25.80
2018-09-10T08:10:14.070Z,26.11
2018-09-10T08:11:14.059Z,26.08
2018-09-10T08:12:14.050Z,25.93
2018-09-10T08:13:14.050Z,26.31
2018-09-10T08:14:14.037Z,26.73
2018-09-10T08:15:14.028Z,26.96
2018-09-10T08:16:14.014Z,27.01
2018-09-10T08:17:14.010Z,27.51
2018-09-10T08:18:14.008Z,27.80
2018-09-10T08:19:13.988Z,27.69
2018-09-10T08:20:13.985Z,27.88
2018-09-10T08:21:13.979Z,27.66
2018-09-10T08:22:13.970Z,27.77
2018-09-10T08:23:13.956Z,27.69
2018-09-10T08:24:14.008Z,27.91
2018-09-10T08:25:14.021Z,28.09
2018-09-10T08:26:13.934Z,28.07
2018-09-10T08:27:13.932Z,27.69
2018-09-10T08:28:13.922Z,27.46
2018-09-10T08:29:13.918Z,27.39
2018-09-10T08:30:13.920Z,27.43
2018-09-10T08:31:13.905Z,27.59
2018-09-10T08:32:13.895Z,27.84
2018-09-10T08:33:13.889Z,27.64
2018-09-10T08:34:13.876Z,27.73
2018-09-10T08:35:13.870Z,27.64
2018-09-10T08:36:13.870Z,27.59
2018-09-10T08:37:13.868Z,26.98
2018-09-10T08:38:13.848Z,27.23
2018-09-10T08:39:13.845Z,27.58
2018-09-10T08:40:13.838Z,27.71
2018-09-10T08:41:13.829Z,28.21
2018-09-10T08:42:13.828Z,28.48
2018-09-10T08:43:13.816Z,29.01
2018-09-10T08:44:13.828Z,29.44
2018-09-10T08:45:13.809Z,29.34
2018-09-10T08:46:13.798Z,29.16
2018-09-10T08:47:13.790Z,28.97
2018-09-10T08:48:13.804Z,28.85
2018-09-10T08:49:13.785Z,28.59
2018-09-10T08:50:13.774Z,28.16
2018-09-10T08:51:13.771Z,28.21
2018-09-10T08:52:13.768Z,27.94
2018-09-10T08:53:13.761Z,27.67
2018-09-10T08:54:13.788Z,27.23
2018-09-10T08:55:13.833Z,27.02
2018-09-10T08:56:14.012Z,27.23
2018-09-10T08:57:13.733Z,27.33
2018-09-10T08:58:13.734Z,27.32
2018-09-10T08:59:13.726Z,27.41
2018-09-10T09:00:13.717Z,27.51
2018-09-10T09:01:13.707Z,27.47
2018-09-10T09:02:13.707Z,27.43
2018-09-10T09:03:13.704Z,27.36
2018-09-10T09:04:13.694Z,27.20
2018-09-10T09:05:13.694Z,26.80
2018-09-10T09:06:13.736Z,26.61
2018-09-10T09:07:13.671Z,26.62
2018-09-10T09:08:13.675Z,26.57
2018-09-10T09:09:13.668Z,26.29
2018-09-10T09:10:13.656Z,26.20
2018-09-10T09:11:13.659Z,26.36
2018-09-10T09:12:13.649Z,26.57
2018-09-10T09:13:13.640Z,26.61
2018-09-10T09:14:13.631Z,26.57
2018-09-10T09:15:13.627Z,26.61
2018-09-10T09:16:13.626Z,26.46
2018-09-10T09:17:13.620Z,26.62
2018-09-10T09:18:13.607Z,26.67
2018-09-10T09:19:13.604Z,26.52
2018-09-10T09:20:13.598Z,26.28
2018-09-10T09:21:13.598Z,26.05
2018-09-10T09:22:13.585Z,25.84
2018-09-10T09:23:13.651Z,25.83
2018-09-10T09:24:13.583Z,25.77
2018-09-10T09:25:13.566Z,25.62
2018-09-10T09:26:13.566Z,25.64
2018-09-10T09:27:13.553Z,25.69
2018-09-10T09:28:13.553Z,25.77
2018-09-10T09:29:13.543Z,25.94
2018-09-10T09:30:13.567Z,26.06
2018-09-10T09:31:13.534Z,26.28
2018-09-10T09:32:13.530Z,26.52
2018-09-10T09:33:13.524Z,26.62
2018-09-10T09:34:13.517Z,26.92
2018-09-10T09:35:13.508Z,26.96
2018-09-10T09:36:13.537Z,26.99
2018-09-10T09:37:13.492Z,27.14
2018-09-10T09:38:13.496Z,27.09
2018-09-10T09:39:13.498Z,27.04
2018-09-10T09:40:13.476Z,26.84
2018-09-10T09:41:13.473Z,26.77
2018-09-10T09:42:13.466Z,26.79
2018-09-10T09:43:13.530Z,26.50
2018-09-10T09:44:13.453Z,26.17
2018-09-10T09:45:13.447Z,26.12
2018-09-10T09:46:13.442Z,26.09
2018-09-10T09:47:13.435Z,26.20
2018-09-10T09:48:13.426Z,26.21
2018-09-10T09:49:13.429Z,26.39
2018-09-10T09:50:13.414Z,26.50
2018-09-10T09:51:13.412Z,26.40
2018-09-10T09:52:13.404Z,26.49
2018-09-10T09:53:13.398Z,26.40
2018-09-10T09:54:13.397Z,26.43
2018-09-10T09:55:13.388Z,26.28
2018-09-10T09:56:13.382Z,26.27
2018-09-10T09:57:13.374Z,26.20
2018-09-10T09:58:13.362Z,26.17
2018-09-10T09:59:13.358Z,26.32
2018-09-10T10:00:13.353Z,26.44
2018-09-10T10:01:13.344Z,26.65
2018-09-10T10:02:13.340Z,26.68
2018-09-10T10:03:13.334Z,26.99
2018-09-10T10:04:14.197Z,26.89
2018-09-10T10:05:13.318Z,26.94
2018-09-10T10:06:13.319Z,26.95
2018-09-10T10:07:13.308Z,26.99
2018-09-10T10:08:13.302Z,27.32
2018-09-10T10:09:13.295Z,27.54
2018-09-10T10:10:13.314Z,27.47
2018-09-10T10:11:13.315Z,27.54
2018-09-10T10:12:13.353Z,27.36
2018-09-10T10:13:13.276Z,27.32
2018-09-10T10:14:13.266Z,26.94
2018-09-10T10:15:13.260Z,26.89
2018-09-10T10:16:13.257Z,27.19
2018-09-10T10:17:13.263Z,27.16
2018-09-10T10:18:13.254Z,27.39
2018-09-10T10:19:13.237Z,27.48
2018-09-10T10:20:13.238Z,27.67
2018-09-10T10:21:13.225Z,27.61
2018-09-10T10:22:13.225Z,27.99
2018-09-10T10:23:13.216Z,28.19
2018-09-10T10:24:13.211Z,28.23
2018-09-10T10:25:13.204Z,28.14
2018-09-10T10:26:13.197Z,27.95
2018-09-10T10:27:13.194Z,27.88
2018-09-10T10:28:13.214Z,27.59
2018-09-10T10:29:13.184Z,27.62
2018-09-10T10:30:13.178Z,27.36
2018-09-10T10:31:13.181Z,27.46
2018-09-10T10:32:13.172Z,27.51
2018-09-10T10:33:13.162Z,27.54
2018-09-10T10:34:13.159Z,27.59
2018-09-10T10:35:13.153Z,27.61
2018-09-10T10:36:13.152Z,27.35
2018-09-10T10:37:13.143Z,27.23
2018-09-10T10:38:13.143Z,27.16
2018-09-10T10:39:13.197Z,27.05
2018-09-10T10:40:13.130Z,27.05
2018-09-10T10:41:13.123Z,27.05
2018-09-10T10:42:13.121Z,26.76
2018-09-10T10:43:13.117Z,26.73
2018-09-10T10:44:13.104Z,26.62
2018-09-10T10:45:13.105Z,26.57
2018-09-10T10:46:13.098Z,26.57
2018-09-10T10:47:13.089Z,26.55
2018-09-10T10:48:13.084Z,26.64
2018-09-10T10:49:13.079Z,26.65
2018-09-10T10:50:13.084Z,26.83
2018-09-10T10:51:13.069Z,26.86
2018-09-10T10:52:13.059Z,26.76
2018-09-10T10:53:13.060Z,26.92
2018-09-10T10:54:13.057Z,26.98
2018-09-10T10:55:13.044Z,27.04
2018-09-10T10:56:13.043Z,27.09
2018-09-10T10:57:13.050Z,27.13
2018-09-10T10:58:13.036Z,27.10
2018-09-10T10:59:13.022Z,27.13
2018-09-10T11:00:13.015Z,26.98
2018-09-10T11:01:13.012Z,27.16
2018-09-10T11:02:13.009Z,27.20
2018-09-10T11:03:12.996Z,27.06
2018-09-10T11:04:13.014Z,27.19
2018-09-10T11:05:12.988Z,27.29
2018-09-10T11:06:12.980Z,27.23
2018-09-10T11:07:12.978Z,27.17
2018-09-10T11:08:12.971Z,27.11
2018-09-10T11:09:12.971Z,27.11
2018-09-10T11:10:12.957Z,27.24
2018-09-10T11:11:12.958Z,27.13
2018-09-10T11:12:12.964Z,27.10
2018-09-10T11:13:12.948Z,27.04
2018-09-10T11:14:12.942Z,27.19
2018-09-10T11:15:12.951Z,27.51
2018-09-10T11:16:12.925Z,27.64
2018-09-10T11:17:12.929Z,27.77
2018-09-10T11:18:12.916Z,27.71
2018-09-10T11:19:12.916Z,28.13
2018-09-10T11:20:12.913Z,28.17
2018-09-10T11:21:12.900Z,28.33
2018-09-10T11:22:12.943Z,28.31
2018-09-10T11:23:12.890Z,28.50
2018-09-10T11:24:12.894Z,28.69
2018-09-10T11:25:12.881Z,28.72
2018-09-10T11:26:12.879Z,28.90
2018-09-10T11:27:12.875Z,29.00
2018-09-10T11:28:12.875Z,28.54
2018-09-10T11:29:12.865Z,28.68
2018-09-10T11:30:12.866Z,28.51
2018-09-10T11:31:12.861Z,28.72
2018-09-10T11:32:12.861Z,28.95
2018-09-10T11:33:12.874Z,29.28
2018-09-10T11:34:12.852Z,29.31
2018-09-10T11:35:12.849Z,29.03
2018-09-10T11:36:12.842Z,29.22
2018-09-10T11:37:12.846Z,29.06
2018-09-10T11:38:12.859Z,29.26
2018-09-10T11:39:12.833Z,29.41
2018-09-10T11:40:12.833Z,29.28
2018-09-10T11:41:12.830Z,29.49
2018-09-10T11:42:12.823Z,29.66
2018-09-10T11:43:12.827Z,29.77
2018-09-10T11:44:12.827Z,29.55
2018-09-10T11:45:12.820Z,29.68
2018-09-10T11:46:12.823Z,29.70
2018-09-10T11:47:12.820Z,29.52
2018-09-10T11:48:12.814Z,29.50
2018-09-10T11:49:12.843Z,29.41
2018-09-10T11:50:12.811Z,29.29
2018-09-10T11:51:12.814Z,29.29
2018-09-10T11:52:12.808Z,29.28
2018-09-10T11:53:12.808Z,29.22
2018-09-10T11:54:12.808Z,28.97
2018-09-10T11:55:12.798Z,28.95
2018-09-10T11:56:12.798Z,28.93
2018-09-10T11:57:12.798Z,29.00
2018-09-10T11:58:12.792Z,28.82
2018-09-10T11:59:12.788Z,28.68
2018-09-10T12:00:12.796Z,28.84
2018-09-10T12:01:12.785Z,28.96
2018-09-10T12:02:12.837Z,29.11
2018-09-10T12:03:12.778Z,29.26
2018-09-10T12:04:12.779Z,29.40
2018-09-10T12:05:12.772Z,29.35
2018-09-10T12:06:12.769Z,29.56
2018-09-10T12:07:12.769Z,29.66
2018-09-10T12:08:12.769Z,29.68
2018-09-10T12:09:12.766Z,29.66
2018-09-10T12:10:12.763Z,29.70
2018-09-10T12:11:12.769Z,29.87
2018-09-10T12:12:12.760Z,29.93
2018-09-10T12:13:12.759Z,30.12
2018-09-10T12:14:12.759Z,30.03
2018-09-10T12:15:12.757Z,29.97
2018-09-10T12:16:12.768Z,29.93
2018-09-10T12:17:12.757Z,29.56
2018-09-10T12:18:12.753Z,29.57
2018-09-10T12:19:12.759Z,29.63
2018-09-10T12:20:12.759Z,29.20
2018-09-10T12:21:12.754Z,29.00
2018-09-10T12:22:12.756Z,29.19
2018-09-10T12:23:12.756Z,29.41
2018-09-10T12:24:12.753Z,29.70
2018-09-10T12:25:12.753Z,29.97
2018-09-10T12:26:12.752Z,30.29
2018-09-10T12:27:12.752Z,30.24
2018-09-10T12:28:12.752Z,30.12
2018-09-10T12:29:12.756Z,30.31
2018-09-10T12:30:12.755Z,30.30
2018-09-10T12:31:12.759Z,30.49
2018-09-10T12:32:12.765Z,30.31
2018-09-10T12:33:12.758Z,30.34
2018-09-10T12:34:12.759Z,30.19
2018-09-10T12:35:12.759Z,30.43
2018-09-10T12:36:12.755Z,30.71
2018-09-10T12:37:12.762Z,30.91
2018-09-10T12:38:12.756Z,30.81
2018-09-10T12:39:12.786Z,30.96
2018-09-10T12:40:12.762Z,30.80
2018-09-10T12:41:12.772Z,30.69
2018-09-10T12:42:12.769Z,29.96
2018-09-10T12:43:12.758Z,29.90
2018-09-10T12:44:12.762Z,29.81
2018-09-10T12:45:12.771Z,29.22
2018-09-10T12:46:12.765Z,29.34
2018-09-10T12:47:12.775Z,29.35
2018-09-10T12:48:12.769Z,29.52
2018-09-10T12:49:12.782Z,29.26
2018-09-10T12:50:12.778Z,29.43
2018-09-10T12:51:12.768Z,29.45
2018-09-10T12:52:12.775Z,29.87
2018-09-10T12:53:12.768Z,30.24
2018-09-10T12:54:12.778Z,30.18
2018-09-10T12:55:12.768Z,30.33
2018-09-10T12:56:12.775Z,30.03
2018-09-10T12:57:12.774Z,29.59